createdAt,value
2018-09-24T00:00:31.239Z,999.12
2018-09-24T00:01:31.238Z,999.16
2018-09-24T00:02:31.234Z,999.16
2018-09-24T00:03:31.226Z,999.19
2018-09-24T00:04:31.222Z,999.21
2018-09-24T00:05:31.218Z,999.24
2018-09-24T00:06:31.217Z,999.24
2018-09-24T00:07:31.210Z,999.23
2018-09-24T00:08:31.206Z,999.27
2018-09-24T00:09:31.203Z,999.29
2018-09-24T00:10:31.199Z,999.32
2018-09-24T00:11:31.193Z,999.35
2018-09-24T00:12:31.192Z,999.39
2018-09-24T00:13:31.187Z,999.43
2018-09-24T00:14:31.186Z,999.44
2018-09-24T00:15:31.186Z,999.45
2018-09-24T00:16:31.207Z,999.51
2018-09-24T00:17:31.173Z,999.55
2018-09-24T00:18:31.166Z,999.56
2018-09-24T00:19:31.167Z,999.59
2018-09-24T00:20:31.162Z,999.64
2018-09-24T00:21:31.159Z,999.61
2018-09-24T00:22:31.153Z,999.64
2018-09-24T00:23:31.157Z,999.67
2018-09-24T00:24:31.150Z,999.68
2018-09-24T00:25:31.143Z,999.72
2018-09-24T00:26:31.142Z,999.67
2018-09-24T00:27:31.137Z,999.72
2018-09-24T00:28:31.132Z,999.77
2018-09-24T00:29:31.128Z,999.77
2018-09-24T00:30:31.129Z,999.84
2018-09-24T00:31:31.127Z,999.88
2018-09-24T00:32:31.115Z,999.85
2018-09-24T00:33:31.112Z,999.92
2018-09-24T00:34:31.110Z,999.92
2018-09-24T00:35:31.106Z,999.94
2018-09-24T00:36:31.103Z,1000
2018-09-24T00:37:31.098Z,999.99
2018-09-24T00:38:31.101Z,1000.01
2018-09-24T00:39:31.088Z,1000.02
2018-09-24T00:40:31.094Z,1000.03
2018-09-24T00:41:31.091Z,1000.1
2018-09-24T00:42:31.080Z,1000.08
2018-09-24T00:43:31.207Z,1000.04
2018-09-24T00:44:31.072Z,1000.13
2018-09-24T00:45:31.066Z,1000.15
2018-09-24T00:46:31.067Z,1000.18
2018-09-24T00:47:31.056Z,1000.27
2018-09-24T00:48:31.103Z,1000.24
2018-09-24T00:49:31.052Z,1000.29
2018-09-24T00:50:31.082Z,1000.34
2018-09-24T00:51:31.044Z,1000.33
2018-09-24T00:52:31.054Z,1000.29
2018-09-24T00:53:31.037Z,1000.29
2018-09-24T00:54:31.042Z,1000.31
2018-09-24T00:55:31.032Z,1000.35
2018-09-24T00:56:31.025Z,1000.35
2018-09-24T00:57:31.025Z,1000.36
2018-09-24T00:58:31.085Z,1000.38
2018-09-24T00:59:31.012Z,1000.48
2018-09-24T01:00:31.008Z,1000.44
2018-09-24T01:01:31.005Z,1000.47
2018-09-24T01:02:30.999Z,1000.54
2018-09-24T01:03:31.051Z,1000.46
2018-09-24T01:04:30.995Z,1000.51
2018-09-24T01:05:30.996Z,1000.5
2018-09-24T01:06:30.993Z,1000.51
2018-09-24T01:07:31.052Z,1000.56
2018-09-24T01:08:30.975Z,1000.56
2018-09-24T01:09:30.971Z,1000.59
2018-09-24T01:10:30.972Z,1000.57
2018-09-24T01:11:30.972Z,1000.61
2018-09-24T01:12:30.970Z,1000.62
2018-09-24T01:13:30.954Z,1000.6
2018-09-24T01:14:30.952Z,1000.62
2018-09-24T01:15:30.945Z,1000.61
2018-09-24T01:16:30.942Z,1000.63
2018-09-24T01:17:30.957Z,1000.63
2018-09-24T01:18:31.042Z,1000.61
2018-09-24T01:19:30.930Z,1000.58
2018-09-24T01:20:30.927Z,1000.63
2018-09-24T01:21:30.920Z,1000.66
2018-09-24T01:22:30.919Z,1000.65
2018-09-24T01:23:30.979Z,1000.67
2018-09-24T01:24:30.910Z,1000.65
2018-09-24T01:25:30.908Z,1000.69
2018-09-24T01:26:30.904Z,1000.72
2018-09-24T01:27:30.900Z,1000.75
2018-09-24T01:28:30.950Z,1000.75
2018-09-24T01:29:30.895Z,1000.76
2018-09-24T01:30:30.884Z,1000.77
2018-09-24T01:31:30.880Z,1000.77
2018-09-24T01:32:30.877Z,1000.79
2018-09-24T01:33:30.932Z,1000.81
2018-09-24T01:34:30.871Z,1000.8
2018-09-24T01:35:30.867Z,1000.82
2018-09-24T01:36:30.862Z,1000.78
2018-09-24T01:37:30.861Z,1000.83
2018-09-24T01:38:30.904Z,1000.81
2018-09-24T01:39:30.849Z,1000.86
2018-09-24T01:40:30.845Z,1000.83
2018-09-24T01:41:30.861Z,1000.85
2018-09-24T01:42:30.837Z,1000.84
2018-09-24T01:43:30.833Z,1000.86
2018-09-24T01:44:30.829Z,1000.84
2018-09-24T01:45:30.824Z,1000.87
2018-09-24T01:46:30.822Z,1000.85
2018-09-24T01:47:30.818Z,1000.85
2018-09-24T01:48:30.866Z,1000.88
2018-09-24T01:49:30.806Z,1000.89
2018-09-24T01:50:30.806Z,1000.91
2018-09-24T01:51:30.811Z,1000.91
2018-09-24T01:52:30.796Z,1000.92
2018-09-24T01:53:30.794Z,1000.94
2018-09-24T01:54:30.791Z,1000.94
2018-09-24T01:55:30.790Z,1000.99
2018-09-24T01:56:30.782Z,1000.98
2018-09-24T01:57:30.779Z,1001.02
2018-09-24T01:58:30.835Z,1001.06
2018-09-24T01:59:30.771Z,1001.09
2018-09-24T02:00:30.765Z,1001.06
2018-09-24T02:01:30.761Z,1001.07
2018-09-24T02:02:30.755Z,1001.06
2018-09-24T02:03:30.804Z,1001.04
2018-09-24T02:04:30.747Z,1001
2018-09-24T02:05:30.746Z,1000.97
2018-09-24T02:06:30.740Z,1000.99
2018-09-24T02:07:30.736Z,1000.98
2018-09-24T02:08:30.732Z,1000.98
2018-09-24T02:09:30.737Z,1000.99
2018-09-24T02:10:30.748Z,1001
2018-09-24T02:11:30.731Z,1000.98
2018-09-24T02:12:30.735Z,1000.99
2018-09-24T02:13:30.736Z,1001.02
2018-09-24T02:14:30.715Z,1001
2018-09-24T02:15:30.735Z,1001.03
2018-09-24T02:16:30.713Z,1001.05
2018-09-24T02:17:30.697Z,1001.03
2018-09-24T02:18:30.894Z,1001.09
2018-09-24T02:19:30.694Z,1001.11
2018-09-24T02:20:30.692Z,1001.08
2018-09-24T02:21:30.689Z,1001.12
2018-09-24T02:22:30.681Z,1001.11
2018-09-24T02:23:30.728Z,1001.1
2018-09-24T02:24:30.689Z,1001.14
2018-09-24T02:25:30.675Z,1001.18
2018-09-24T02:26:30.670Z,1001.19
2018-09-24T02:27:30.663Z,1001.19
2018-09-24T02:28:30.704Z,1001.22
2018-09-24T02:29:30.661Z,1001.24
2018-09-24T02:30:30.665Z,1001.23
2018-09-24T02:31:30.653Z,1001.28
2018-09-24T02:32:30.641Z,1001.32
2018-09-24T02:33:30.737Z,1001.29
2018-09-24T02:34:30.633Z,1001.36
2018-09-24T02:35:30.641Z,1001.29
2018-09-24T02:36:30.622Z,1001.33
2018-09-24T02:37:30.621Z,1001.36
2018-09-24T02:38:30.669Z,1001.36
2018-09-24T02:39:30.612Z,1001.42
2018-09-24T02:40:30.608Z,1001.44
2018-09-24T02:41:30.602Z,1001.42
2018-09-24T02:42:30.603Z,1001.43
2018-09-24T02:43:30.595Z,1001.45
2018-09-24T02:44:30.590Z,1001.45
2018-09-24T02:45:30.589Z,1001.43
2018-09-24T02:46:30.583Z,1001.47
2018-09-24T02:47:30.616Z,1001.49
2018-09-24T02:48:30.626Z,1001.48
2018-09-24T02:49:30.569Z,1001.52
2018-09-24T02:50:30.565Z,1001.51
2018-09-24T02:51:30.561Z,1001.54
2018-09-24T02:52:30.555Z,1001.55
2018-09-24T02:53:30.602Z,1001.59
2018-09-24T02:54:30.547Z,1001.61
2018-09-24T02:55:30.547Z,1001.59
2018-09-24T02:56:30.548Z,1001.55
2018-09-24T02:57:30.534Z,1001.62
2018-09-24T02:58:30.599Z,1001.6
2018-09-24T02:59:30.525Z,1001.62
2018-09-24T03:00:30.525Z,1001.59
2018-09-24T03:01:30.525Z,1001.6
2018-09-24T03:02:30.512Z,1001.63
2018-09-24T03:03:30.558Z,1001.64
2018-09-24T03:04:30.506Z,1001.68
2018-09-24T03:05:30.501Z,1001.66
2018-09-24T03:06:30.499Z,1001.69
2018-09-24T03:07:30.490Z,1001.75
2018-09-24T03:08:30.487Z,1001.72
2018-09-24T03:09:30.481Z,1001.79
2018-09-24T03:10:30.477Z,1001.83
2018-09-24T03:11:30.477Z,1001.84
2018-09-24T03:12:30.469Z,1001.88
2018-09-24T03:13:30.463Z,1001.9
2018-09-24T03:14:30.471Z,1001.95
2018-09-24T03:15:30.455Z,1001.91
2018-09-24T03:16:30.453Z,1001.94
2018-09-24T03:17:30.466Z,1001.89
2018-09-24T03:18:30.458Z,1001.93
2018-09-24T03:19:30.440Z,1001.93
2018-09-24T03:20:30.448Z,1001.97
2018-09-24T03:21:30.435Z,1001.98
2018-09-24T03:22:30.435Z,1001.99
2018-09-24T03:23:30.442Z,1001.99
2018-09-24T03:24:30.427Z,1002.01
2018-09-24T03:25:30.413Z,1002.04
2018-09-24T03:26:30.411Z,1002.06
2018-09-24T03:27:30.415Z,1002.13
2018-09-24T03:28:30.401Z,1002.16
2018-09-24T03:29:30.400Z,1002.13
2018-09-24T03:30:30.390Z,1002.15
2018-09-24T03:31:30.388Z,1002.18
2018-09-24T03:32:30.385Z,1002.2
2018-09-24T03:33:30.380Z,1002.22
2018-09-24T03:34:30.379Z,1002.19
2018-09-24T03:35:30.375Z,1002.25
2018-09-24T03:36:30.371Z,1002.19
2018-09-24T03:37:30.364Z,1002.21
2018-09-24T03:38:30.373Z,1002.23
2018-09-24T03:39:30.353Z,1002.25
2018-09-24T03:40:30.400Z,1002.24
2018-09-24T03:41:30.347Z,1002.27
2018-09-24T03:42:30.352Z,1002.3
2018-09-24T03:43:30.375Z,1002.27
2018-09-24T03:44:30.340Z,1002.27
2018-09-24T03:45:30.329Z,1002.28
2018-09-24T03:46:30.324Z,1002.26
2018-09-24T03:47:30.321Z,1002.3
2018-09-24T03:48:30.324Z,1002.33
2018-09-24T03:49:30.313Z,1002.33
2018-09-24T03:50:30.309Z,1002.32
2018-09-24T03:51:30.303Z,1002.35
2018-09-24T03:52:30.299Z,1002.34
2018-09-24T03:53:30.296Z,1002.38
2018-09-24T03:54:30.301Z,1002.42
2018-09-24T03:55:30.299Z,1002.41
2018-09-24T03:56:30.288Z,1002.43
2018-09-24T03:57:30.278Z,1002.4
2018-09-24T03:58:30.277Z,1002.4
2018-09-24T03:59:30.300Z,1002.47
2018-09-24T04:00:30.278Z,1002.49
2018-09-24T04:01:30.260Z,1002.51
2018-09-24T04:02:30.254Z,1002.51
2018-09-24T04:03:30.268Z,1002.56
2018-09-24T04:04:30.257Z,1002.58
2018-09-24T04:05:30.253Z,1002.6
2018-09-24T04:06:30.239Z,1002.6
2018-09-24T04:07:30.232Z,1002.57
2018-09-24T04:08:30.241Z,1002.6
2018-09-24T04:09:30.287Z,1002.63
2018-09-24T04:10:30.225Z,1002.6
2018-09-24T04:11:30.217Z,1002.6
2018-09-24T04:12:30.209Z,1002.7
2018-09-24T04:13:30.244Z,1002.73
2018-09-24T04:14:30.207Z,1002.74
2018-09-24T04:15:30.195Z,1002.77
2018-09-24T04:16:30.199Z,1002.78
2018-09-24T04:17:30.199Z,1002.79
2018-09-24T04:18:30.179Z,1002.82
2018-09-24T04:19:30.203Z,1002.9
2018-09-24T04:20:30.175Z,1002.92
2018-09-24T04:21:30.166Z,1002.88
2018-09-24T04:22:30.161Z,1002.94
2018-09-24T04:23:30.160Z,1002.95
2018-09-24T04:24:30.155Z,1002.97
2018-09-24T04:25:30.148Z,1003
2018-09-24T04:26:30.142Z,1003.01
2018-09-24T04:27:30.137Z,1003.06
2018-09-24T04:28:30.133Z,1003.08
2018-09-24T04:29:30.129Z,1003.1
2018-09-24T04:30:30.129Z,1003.1
2018-09-24T04:31:30.133Z,1003.08
2018-09-24T04:32:30.114Z,1003.14
2018-09-24T04:33:30.112Z,1003.12
2018-09-24T04:34:30.102Z,1003.18
2018-09-24T04:35:30.102Z,1003.18
2018-09-24T04:36:30.095Z,1003.23
2018-09-24T04:37:30.089Z,1003.23
2018-09-24T04:38:30.088Z,1003.27
2018-09-24T04:39:30.099Z,1003.29
2018-09-24T04:40:30.077Z,1003.32
2018-09-24T04:41:30.075Z,1003.32
2018-09-24T04:42:30.067Z,1003.34
2018-09-24T04:43:30.061Z,1003.36
2018-09-24T04:44:30.057Z,1003.34
2018-09-24T04:45:30.052Z,1003.39
2018-09-24T04:46:30.051Z,1003.43
2018-09-24T04:47:30.051Z,1003.43
2018-09-24T04:48:30.033Z,1003.44
2018-09-24T04:49:30.032Z,1003.46
2018-09-24T04:50:30.025Z,1003.46
2018-09-24T04:51:30.020Z,1003.43
2018-09-24T04:52:30.015Z,1003.45
2018-09-24T04:53:30.011Z,1003.47
2018-09-24T04:54:30.014Z,1003.46
2018-09-24T04:55:30.005Z,1003.48
2018-09-24T04:56:29.993Z,1003.47
2018-09-24T04:57:29.989Z,1003.48
2018-09-24T04:58:30.021Z,1003.53
2018-09-24T04:59:29.981Z,1003.53
2018-09-24T05:00:29.977Z,1003.54
2018-09-24T05:01:29.970Z,1003.5
2018-09-24T05:02:29.964Z,1003.48
2018-09-24T05:03:29.961Z,1003.56
2018-09-24T05:04:29.956Z,1003.58
2018-09-24T05:05:29.954Z,1003.57
2018-09-24T05:06:29.949Z,1003.64
2018-09-24T05:07:29.941Z,1003.64
2018-09-24T05:08:29.936Z,1003.66
2018-09-24T05:09:29.930Z,1003.72
2018-09-24T05:10:29.928Z,1003.67
2018-09-24T05:11:29.921Z,1003.68
2018-09-24T05:12:29.916Z,1003.75
2018-09-24T05:13:29.912Z,1003.75
2018-09-24T05:14:29.911Z,1003.77
2018-09-24T05:15:29.903Z,1003.8
2018-09-24T05:16:29.950Z,1003.86
2018-09-24T05:17:29.892Z,1003.88
2018-09-24T05:18:29.887Z,1003.89
2018-09-24T05:19:29.880Z,1003.92
2018-09-24T05:20:29.877Z,1003.95
2018-09-24T05:21:29.870Z,1003.97
2018-09-24T05:22:29.864Z,1003.99
2018-09-24T05:23:29.860Z,1004.01
2018-09-24T05:24:29.861Z,1004.02
2018-09-24T05:25:29.850Z,1004.02
2018-09-24T05:26:29.856Z,1004
2018-09-24T05:27:29.991Z,1004.09
2018-09-24T05:28:29.840Z,1004.11
2018-09-24T05:29:29.837Z,1004.07
2018-09-24T05:30:29.825Z,1004.16
2018-09-24T05:31:29.823Z,1004.16
2018-09-24T05:32:29.920Z,1004.18
2018-09-24T05:33:29.812Z,1004.18
2018-09-24T05:34:29.891Z,1004.21
2018-09-24T05:35:29.800Z,1004.24
2018-09-24T05:36:29.801Z,1004.26
2018-09-24T05:37:29.792Z,1004.23
2018-09-24T05:38:29.786Z,1004.3
2018-09-24T05:39:29.782Z,1004.3
2018-09-24T05:40:29.785Z,1004.35
2018-09-24T05:41:29.774Z,1004.32
2018-09-24T05:42:29.765Z,1004.36
2018-09-24T05:43:29.762Z,1004.38
2018-09-24T05:44:29.760Z,1004.43
2018-09-24T05:45:29.750Z,1004.44
2018-09-24T05:46:29.747Z,1004.42
2018-09-24T05:47:29.741Z,1004.47
2018-09-24T05:48:29.736Z,1004.52
2018-09-24T05:49:29.734Z,1004.48
2018-09-24T05:50:29.728Z,1004.51
2018-09-24T05:51:29.728Z,1004.53
2018-09-24T05:52:29.718Z,1004.54
2018-09-24T05:53:29.714Z,1004.62
2018-09-24T05:54:29.709Z,1004.65
2018-09-24T05:55:29.712Z,1004.65
2018-09-24T05:56:29.698Z,1004.68
2018-09-24T05:57:29.694Z,1004.69
2018-09-24T05:58:29.689Z,1004.69
2018-09-24T05:59:29.686Z,1004.73
2018-09-24T06:00:29.683Z,1004.7
2018-09-24T06:01:29.680Z,1004.76
2018-09-24T06:02:29.673Z,1004.76
2018-09-24T06:03:29.677Z,1004.82
2018-09-24T06:04:29.725Z,1004.79
2018-09-24T06:05:29.660Z,1004.81
2018-09-24T06:06:29.659Z,1004.83
2018-09-24T06:07:29.659Z,1004.82
2018-09-24T06:08:29.660Z,1004.89
2018-09-24T06:09:29.641Z,1004.93
2018-09-24T06:10:29.641Z,1004.94
2018-09-24T06:11:29.635Z,1004.99
2018-09-24T06:12:29.633Z,1005
2018-09-24T06:13:29.674Z,1005.06
2018-09-24T06:14:29.638Z,1005.04
2018-09-24T06:15:29.616Z,1005.06
2018-09-24T06:16:29.622Z,1005.08
2018-09-24T06:17:29.609Z,1005.08
2018-09-24T06:18:29.604Z,1005.13
2018-09-24T06:19:29.622Z,1005.12
2018-09-24T06:20:29.594Z,1005.1
2018-09-24T06:21:29.589Z,1005.11
2018-09-24T06:22:29.585Z,1005.13
2018-09-24T06:23:29.582Z,1005.18
2018-09-24T06:24:29.579Z,1005.17
2018-09-24T06:25:29.572Z,1005.21
2018-09-24T06:26:29.588Z,1005.24
2018-09-24T06:27:29.638Z,1005.22
2018-09-24T06:28:29.627Z,1005.25
2018-09-24T06:29:29.563Z,1005.33
2018-09-24T06:30:29.551Z,1005.32
2018-09-24T06:31:29.551Z,1005.32
2018-09-24T06:32:29.547Z,1005.33
2018-09-24T06:33:29.540Z,1005.38
2018-09-24T06:34:29.533Z,1005.37
2018-09-24T06:35:29.532Z,1005.38
2018-09-24T06:36:29.526Z,1005.38
2018-09-24T06:37:29.524Z,1005.5
2018-09-24T06:38:29.518Z,1005.47
2018-09-24T06:39:29.514Z,1005.43
2018-09-24T06:40:29.512Z,1005.51
2018-09-24T06:41:29.505Z,1005.46
2018-09-24T06:42:29.501Z,1005.42
2018-09-24T06:43:29.500Z,1005.43
2018-09-24T06:44:29.495Z,1005.43
2018-09-24T06:45:29.490Z,1005.44
2018-09-24T06:46:29.486Z,1005.46
2018-09-24T06:47:29.484Z,1005.46
2018-09-24T06:48:29.480Z,1005.5
2018-09-24T06:49:29.505Z,1005.49
2018-09-24T06:50:29.472Z,1005.51
2018-09-24T06:51:29.468Z,1005.52
2018-09-24T06:52:29.463Z,1005.52
2018-09-24T06:53:29.460Z,1005.6
2018-09-24T06:54:29.456Z,1005.63
2018-09-24T06:55:29.452Z,1005.65
2018-09-24T06:56:29.448Z,1005.72
2018-09-24T06:57:29.446Z,1005.67
2018-09-24T06:58:29.444Z,1005.69
2018-09-24T06:59:29.486Z,1005.75
2018-09-24T07:00:29.472Z,1005.75
2018-09-24T07:01:29.440Z,1005.79
2018-09-24T07:02:29.447Z,1005.82
2018-09-24T07:03:29.444Z,1005.79
2018-09-24T07:04:29.444Z,1005.78
2018-09-24T07:05:29.582Z,1005.81
2018-09-24T07:06:29.427Z,1005.91
2018-09-24T07:07:29.423Z,1005.86
2018-09-24T07:08:29.434Z,1005.91
2018-09-24T07:09:29.426Z,1005.9
2018-09-24T07:10:29.423Z,1006
2018-09-24T07:11:29.426Z,1005.96
2018-09-24T07:12:29.417Z,1006.03
2018-09-24T07:13:29.415Z,1006
2018-09-24T07:14:29.416Z,1005.98
2018-09-24T07:15:29.419Z,1006.04
2018-09-24T07:16:29.413Z,1006.05
2018-09-24T07:17:29.412Z,1006.06
2018-09-24T07:18:29.409Z,1006.11
2018-09-24T07:19:29.410Z,1006.12
2018-09-24T07:20:29.408Z,1006.1
2018-09-24T07:21:29.450Z,1006.11
2018-09-24T07:22:29.403Z,1006.09
2018-09-24T07:23:29.404Z,1006.19
2018-09-24T07:24:29.401Z,1006.03
2018-09-24T07:25:29.412Z,1006.13
2018-09-24T07:26:29.399Z,1006.16
2018-09-24T07:27:29.408Z,1006.2
2018-09-24T07:28:29.472Z,1006.21
2018-09-24T07:29:29.407Z,1006.23
2018-09-24T07:30:29.399Z,1006.29
2018-09-24T07:31:29.399Z,1006.22
2018-09-24T07:32:29.394Z,1006.31
2018-09-24T07:33:29.391Z,1006.3
2018-09-24T07:34:29.395Z,1006.31
2018-09-24T07:35:29.393Z,1006.3
2018-09-24T07:36:29.392Z,1006.27
2018-09-24T07:37:29.397Z,1006.29
2018-09-24T07:38:29.395Z,1006.36
2018-09-24T07:39:29.400Z,1006.34
2018-09-24T07:40:29.401Z,1006.3
2018-09-24T07:41:29.398Z,1006.27
2018-09-24T07:42:29.408Z,1006.27
2018-09-24T07:43:29.461Z,1006.33
2018-09-24T07:44:29.399Z,1006.4
2018-09-24T07:45:29.399Z,1006.36
2018-09-24T07:46:29.399Z,1006.4
2018-09-24T07:47:29.401Z,1006.4
2018-09-24T07:48:29.399Z,1006.43
2018-09-24T07:49:29.402Z,1006.48
2018-09-24T07:50:29.403Z,1006.49
2018-09-24T07:51:29.400Z,1006.48
2018-09-24T07:52:29.398Z,1006.42
2018-09-24T07:53:29.399Z,1006.5
2018-09-24T07:54:29.403Z,1006.45
2018-09-24T07:55:29.442Z,1006.46
2018-09-24T07:56:29.409Z,1006.43
2018-09-24T07:57:29.406Z,1006.43
2018-09-24T07:58:29.424Z,1006.47
2018-09-24T07:59:29.406Z,1006.47
2018-09-24T08:00:29.409Z,1006.49
2018-09-24T08:01:29.413Z,1006.52
2018-09-24T08:02:29.415Z,1006.5
2018-09-24T08:03:29.415Z,1006.54
2018-09-24T08:04:29.420Z,1006.56
2018-09-24T08:05:29.420Z,1006.54
2018-09-24T08:06:29.431Z,1006.58
2018-09-24T08:07:29.482Z,1006.56
2018-09-24T08:08:29.434Z,1006.61
2018-09-24T08:09:29.430Z,1006.6
2018-09-24T08:10:29.434Z,1006.68
2018-09-24T08:11:29.434Z,1006.68
2018-09-24T08:12:29.445Z,1006.7
2018-09-24T08:13:29.442Z,1006.71
2018-09-24T08:14:29.438Z,1006.7
2018-09-24T08:15:29.441Z,1006.68
2018-09-24T08:16:29.447Z,1006.71
2018-09-24T08:17:29.452Z,1006.72
2018-09-24T08:18:29.460Z,1006.78
2018-09-24T08:19:29.457Z,1006.74
2018-09-24T08:20:29.449Z,1006.74
2018-09-24T08:21:29.448Z,1006.71
2018-09-24T08:22:29.450Z,1006.79
2018-09-24T08:23:29.451Z,1006.83
2018-09-24T08:24:29.451Z,1006.85
2018-09-24T08:25:29.454Z,1006.87
2018-09-24T08:26:29.455Z,1006.91
2018-09-24T08:27:29.460Z,1006.98
2018-09-24T08:28:29.450Z,1006.94
2018-09-24T08:29:29.452Z,1006.89
2018-09-24T08:30:29.454Z,1007.03
2018-09-24T08:31:29.452Z,1006.98
2018-09-24T08:32:29.451Z,1006.94
2018-09-24T08:33:29.454Z,1006.92
2018-09-24T08:34:29.460Z,1006.96
2018-09-24T08:35:29.460Z,1006.99
2018-09-24T08:36:29.447Z,1006.95
2018-09-24T08:37:29.459Z,1006.99
2018-09-24T08:38:29.444Z,1007
2018-09-24T08:39:29.445Z,1007.03
2018-09-24T08:40:29.445Z,1007.07
2018-09-24T08:41:29.441Z,1007.08
2018-09-24T08:42:29.440Z,1007.05
2018-09-24T08:43:29.441Z,1007.08
2018-09-24T08:44:29.440Z,1007.04
2018-09-24T08:45:29.439Z,1007.01
2018-09-24T08:46:29.438Z,1006.94
2018-09-24T08:47:29.436Z,1007.04
2018-09-24T08:48:29.437Z,1007.08
2018-09-24T08:49:29.435Z,1006.99
2018-09-24T08:50:29.433Z,1006.98
2018-09-24T08:51:29.435Z,1007.06
2018-09-24T08:52:29.430Z,1007.11
2018-09-24T08:53:29.436Z,1007.11
2018-09-24T08:54:29.434Z,1007.13
2018-09-24T08:55:29.432Z,1007.22
2018-09-24T08:56:29.434Z,1007.25
2018-09-24T08:57:29.428Z,1007.25
2018-09-24T08:58:29.428Z,1007.23
2018-09-24T08:59:29.420Z,1007.22
2018-09-24T09:00:29.416Z,1007.2
2018-09-24T09:01:29.431Z,1007.14
2018-09-24T09:02:29.438Z,1007.22
2018-09-24T09:03:29.417Z,1007.17
2018-09-24T09:04:29.414Z,1007.15
2018-09-24T09:05:29.415Z,1007.21
2018-09-24T09:06:29.423Z,1007.23
2018-09-24T09:07:29.419Z,1007.23
2018-09-24T09:08:29.413Z,1007.24
2018-09-24T09:09:29.413Z,1007.25
2018-09-24T09:10:29.410Z,1007.22
2018-09-24T09:11:29.408Z,1007.25
2018-09-24T09:12:29.409Z,1007.25
2018-09-24T09:13:29.406Z,1007.27
2018-09-24T09:14:29.406Z,1007.32
2018-09-24T09:15:29.404Z,1007.32
2018-09-24T09:16:29.517Z,1007.27
2018-09-24T09:17:29.403Z,1007.29
2018-09-24T09:18:29.402Z,1007.28
2018-09-24T09:19:29.399Z,1007.27
2018-09-24T09:20:29.401Z,1007.22
2018-09-24T09:21:29.400Z,1007.32
2018-09-24T09:22:29.395Z,1007.28
2018-09-24T09:23:29.396Z,1007.31
2018-09-24T09:24:29.395Z,1007.31
2018-09-24T09:25:29.393Z,1007.29
2018-09-24T09:26:29.392Z,1007.38
2018-09-24T09:27:29.389Z,1007.38
2018-09-24T09:28:29.389Z,1007.4
2018-09-24T09:29:29.425Z,1007.39
2018-09-24T09:30:29.387Z,1007.36
2018-09-24T09:31:29.391Z,1007.33
2018-09-24T09:32:29.385Z,1007.34
2018-09-24T09:33:29.383Z,1007.34
2018-09-24T09:34:29.385Z,1007.37
2018-09-24T09:35:29.382Z,1007.37
2018-09-24T09:36:29.377Z,1007.35
2018-09-24T09:37:29.381Z,1007.35
2018-09-24T09:38:29.378Z,1007.4
2018-09-24T09:39:29.379Z,1007.39
2018-09-24T09:40:29.376Z,1007.37
2018-09-24T09:41:29.387Z,1007.36
2018-09-24T09:42:29.381Z,1007.34
2018-09-24T09:43:29.371Z,1007.33
2018-09-24T09:44:29.370Z,1007.33
2018-09-24T09:45:29.372Z,1007.35
2018-09-24T09:46:29.367Z,1007.44
2018-09-24T09:47:29.367Z,1007.33
2018-09-24T09:48:29.364Z,1007.41
2018-09-24T09:49:29.373Z,1007.42
2018-09-24T09:50:29.366Z,1007.34
2018-09-24T09:51:29.358Z,1007.3
2018-09-24T09:52:29.359Z,1007.29
2018-09-24T09:53:29.391Z,1007.32
2018-09-24T09:54:29.354Z,1007.37
2018-09-24T09:55:29.353Z,1007.41
2018-09-24T09:56:29.355Z,1007.41
2018-09-24T09:57:29.351Z,1007.36
2018-09-24T09:58:29.390Z,1007.31
2018-09-24T09:59:29.346Z,1007.3
2018-09-24T10:00:29.368Z,1007.32
2018-09-24T10:01:29.347Z,1007.39
2018-09-24T10:02:29.344Z,1007.33
2018-09-24T10:03:29.349Z,1007.36
2018-09-24T10:04:29.342Z,1007.3
2018-09-24T10:05:29.344Z,1007.26
2018-09-24T10:06:29.340Z,1007.27
2018-09-24T10:07:29.338Z,1007.26
2018-09-24T10:08:29.339Z,1007.23
2018-09-24T10:09:29.339Z,1007.28
2018-09-24T10:10:29.334Z,1007.22
2018-09-24T10:11:29.333Z,1007.32
2018-09-24T10:12:29.335Z,1007.33
2018-09-24T10:13:29.330Z,1007.33
2018-09-24T10:14:29.333Z,1007.22
2018-09-24T10:15:29.339Z,1007.26
2018-09-24T10:16:29.329Z,1007.3
2018-09-24T10:17:29.325Z,1007.24
2018-09-24T10:18:29.324Z,1007.31
2018-09-24T10:19:29.326Z,1007.37
2018-09-24T10:20:29.321Z,1007.26
2018-09-24T10:21:29.321Z,1007.26
2018-09-24T10:22:29.358Z,1007.36
2018-09-24T10:23:29.324Z,1007.17
2018-09-24T10:24:29.332Z,1007.25
2018-09-24T10:25:29.321Z,1007.23
2018-09-24T10:26:29.314Z,1007.24
2018-09-24T10:27:29.312Z,1007.29
2018-09-24T10:28:29.311Z,1007.27
2018-09-24T10:29:29.309Z,1007.28
2018-09-24T10:30:29.309Z,1007.27
2018-09-24T10:31:29.310Z,1007.19
2018-09-24T10:32:29.310Z,1007.22
2018-09-24T10:33:29.308Z,1007.3
2018-09-24T10:34:29.306Z,1007.33
2018-09-24T10:35:29.306Z,1007.25
2018-09-24T10:36:29.304Z,1007.17
2018-09-24T10:37:29.306Z,1007.15
2018-09-24T10:38:29.304Z,1007.19
2018-09-24T10:39:29.305Z,1007.21
2018-09-24T10:40:29.306Z,1007.18
2018-09-24T10:41:29.303Z,1007.17
2018-09-24T10:42:29.304Z,1007.18
2018-09-24T10:43:29.302Z,1007.17
2018-09-24T10:44:29.297Z,1007.21
2018-09-24T10:45:29.298Z,1007.18
2018-09-24T10:46:29.295Z,1007.14
2018-09-24T10:47:29.296Z,1007.2
2018-09-24T10:48:29.293Z,1007.24
2018-09-24T10:49:29.294Z,1007.18
2018-09-24T10:50:29.290Z,1007.15
2018-09-24T10:51:29.293Z,1007.19
2018-09-24T10:52:29.291Z,1007.24
2018-09-24T10:53:29.303Z,1007.19
2018-09-24T10:54:29.289Z,1007.2
2018-09-24T10:55:29.289Z,1007.19
2018-09-24T10:56:29.287Z,1007.12
2018-09-24T10:57:29.284Z,1007.19
2018-09-24T10:58:29.285Z,1007.16
2018-09-24T10:59:29.339Z,1007.16
2018-09-24T11:00:29.289Z,1007.13
2018-09-24T11:01:29.281Z,1007.19
2018-09-24T11:02:29.281Z,1007.19
2018-09-24T11:03:29.280Z,1007.11
2018-09-24T11:04:29.282Z,1007.26
2018-09-24T11:05:29.375Z,1007.26
2018-09-24T11:06:29.280Z,1007.31
2018-09-24T11:07:29.280Z,1007.33
2018-09-24T11:08:29.273Z,1007.36
2018-09-24T11:09:29.288Z,1007.3
2018-09-24T11:10:29.271Z,1007.27
2018-09-24T11:11:29.273Z,1007.26
2018-09-24T11:12:29.272Z,1007.24
2018-09-24T11:13:29.269Z,1007.21
2018-09-24T11:14:29.265Z,1007.22
2018-09-24T11:15:29.264Z,1007.16
2018-09-24T11:16:29.476Z,1007.22
2018-09-24T11:17:29.420Z,1007.19
2018-09-24T11:18:29.280Z,1007.19
2018-09-24T11:19:29.256Z,1007.17
2018-09-24T11:20:29.257Z,1007.19
2018-09-24T11:21:29.254Z,1007.21
2018-09-24T11:22:29.253Z,1007.3
2018-09-24T11:23:29.287Z,1007.28
2018-09-24T11:24:29.253Z,1007.29
2018-09-24T11:25:29.249Z,1007.3
2018-09-24T11:27:29.251Z,1007.33
2018-09-24T11:28:29.253Z,1007.23
2018-09-24T11:29:29.339Z,1007.2
2018-09-24T11:30:29.258Z,1007.14
2018-09-24T11:31:29.267Z,1007.24
2018-09-24T11:32:29.253Z,1007.13
2018-09-24T11:33:29.249Z,1007.09
2018-09-24T11:34:29.255Z,1007.06
2018-09-24T11:35:29.253Z,1007.1
2018-09-24T11:36:29.254Z,1007.12
2018-09-24T11:37:29.316Z,1007.2
2018-09-24T11:38:29.236Z,1007.14
2018-09-24T11:39:29.237Z,1007.06
2018-09-24T11:40:29.235Z,1007.1
2018-09-24T11:41:29.235Z,1007.16
2018-09-24T11:42:29.234Z,1007.16
2018-09-24T11:43:29.232Z,1007.09
2018-09-24T11:44:29.232Z,1007.02
2018-09-24T11:45:29.231Z,1007.01
2018-09-24T11:46:29.271Z,1006.96
2018-09-24T11:47:29.230Z,1006.97
2018-09-24T11:48:29.230Z,1006.91
2018-09-24T11:49:29.231Z,1006.93
2018-09-24T11:50:29.278Z,1006.95
2018-09-24T11:51:29.228Z,1007.01
2018-09-24T11:52:29.223Z,1006.91
2018-09-24T11:53:29.226Z,1006.93
2018-09-24T11:54:29.232Z,1006.95
2018-09-24T11:55:29.223Z,1006.96
2018-09-24T11:56:29.220Z,1006.99
2018-09-24T11:57:29.218Z,1007.01
2018-09-24T11:58:29.225Z,1007
2018-09-24T11:59:29.245Z,1007.11
2018-09-24T12:00:29.219Z,1007.06
2018-09-24T12:01:29.222Z,1007.05
2018-09-24T12:02:29.256Z,1007.03
2018-09-24T12:03:29.218Z,1006.98
2018-09-24T12:04:29.213Z,1007.02
2018-09-24T12:05:29.214Z,1006.98
2018-09-24T12:06:29.215Z,1006.91
2018-09-24T12:07:29.211Z,1006.88
2018-09-24T12:08:29.209Z,1006.85
2018-09-24T12:09:29.209Z,1006.94
2018-09-24T12:10:29.224Z,1006.94